createdAt,value
2017-11-27T00:00:56.796Z,0.00
2017-11-27T00:01:56.797Z,0.00
2017-11-27T00:02:56.773Z,0.00
2017-11-27T00:03:56.758Z,0.00
2017-11-27T00:04:56.750Z,0.00
2017-11-27T00:05:56.738Z,0.00
2017-11-27T00:06:56.722Z,0.00
2017-11-27T00:07:56.709Z,0.00
2017-11-27T00:08:56.697Z,0.00
2017-11-27T00:09:56.690Z,0.00
2017-11-27T00:10:56.671Z,0.00
2017-11-27T00:11:56.657Z,0.00
2017-11-27T00:12:56.648Z,0.00
2017-11-27T00:13:56.635Z,0.00
2017-11-27T00:14:56.643Z,0.00
2017-11-27T00:15:56.609Z,0.00
2017-11-27T00:16:56.595Z,0.00
2017-11-27T00:17:56.593Z,0.00
2017-11-27T00:18:56.572Z,0.00
2017-11-27T00:19:56.558Z,0.00
2017-11-27T00:20:56.545Z,0.00
2017-11-27T00:21:56.531Z,0.00
2017-11-27T00:22:56.528Z,0.00
2017-11-27T00:23:56.508Z,0.00
2017-11-27T00:24:56.494Z,0.00
2017-11-27T00:25:56.482Z,0.00
2017-11-27T00:26:56.482Z,0.00
2017-11-27T00:27:56.473Z,0.00
2017-11-27T00:28:56.444Z,0.00
2017-11-27T00:29:56.433Z,0.00
2017-11-27T00:30:56.418Z,0.00
2017-11-27T00:31:56.407Z,0.00
2017-11-27T00:32:56.394Z,0.00
2017-11-27T00:33:56.379Z,0.00
2017-11-27T00:34:56.369Z,0.00
2017-11-27T00:35:56.378Z,0.00
2017-11-27T00:36:56.343Z,0.00
2017-11-27T00:37:56.332Z,0.00
2017-11-27T00:38:56.318Z,0.00
2017-11-27T00:39:56.305Z,0.00
2017-11-27T00:40:56.312Z,0.00
2017-11-27T00:41:56.282Z,0.00
2017-11-27T00:42:56.268Z,0.00
2017-11-27T00:43:56.255Z,0.00
2017-11-27T00:44:56.244Z,0.00
2017-11-27T00:45:56.246Z,0.00
2017-11-27T00:46:56.217Z,0.00
2017-11-27T00:47:56.204Z,0.00
2017-11-27T00:48:56.201Z,0.00
2017-11-27T00:49:56.180Z,0.00
2017-11-27T00:50:56.164Z,0.00
2017-11-27T00:51:56.154Z,0.00
2017-11-27T00:52:56.147Z,0.00
2017-11-27T00:53:56.129Z,0.00
2017-11-27T00:54:56.115Z,0.00
2017-11-27T00:55:56.103Z,0.00
2017-11-27T00:56:56.090Z,0.00
2017-11-27T00:57:56.077Z,0.00
2017-11-27T00:58:56.069Z,0.00
2017-11-27T00:59:56.051Z,0.00
2017-11-27T01:00:56.039Z,0.00
2017-11-27T01:01:56.053Z,0.00
2017-11-27T01:02:56.013Z,0.00
2017-11-27T01:03:56.002Z,0.00
2017-11-27T01:04:55.989Z,0.00
2017-11-27T01:05:55.976Z,0.00
2017-11-27T01:06:55.962Z,0.00
2017-11-27T01:07:55.957Z,0.00
2017-11-27T01:08:55.955Z,0.00
2017-11-27T01:09:55.925Z,0.00
2017-11-27T01:10:55.915Z,0.00
2017-11-27T01:11:55.900Z,0.00
2017-11-27T01:12:55.889Z,0.00
2017-11-27T01:13:55.874Z,0.00
2017-11-27T01:14:55.860Z,0.00
2017-11-27T01:15:55.848Z,0.00
2017-11-27T01:16:55.837Z,0.00
2017-11-27T01:17:55.825Z,0.00
2017-11-27T01:18:55.814Z,0.00
2017-11-27T01:19:55.803Z,0.00
2017-11-27T01:20:55.786Z,0.00
2017-11-27T01:21:55.776Z,0.00
2017-11-27T01:22:55.761Z,0.00
2017-11-27T01:23:55.752Z,0.00
2017-11-27T01:24:55.736Z,0.00
2017-11-27T01:25:55.725Z,0.00
2017-11-27T01:26:55.711Z,0.00
2017-11-27T01:27:55.699Z,0.00
2017-11-27T01:28:55.697Z,0.00
2017-11-27T01:29:55.672Z,0.00
2017-11-27T01:30:55.660Z,0.00
2017-11-27T01:31:55.646Z,0.00
2017-11-27T01:32:55.643Z,0.00
2017-11-27T01:33:55.622Z,0.00
2017-11-27T01:34:55.615Z,0.00
2017-11-27T01:35:55.599Z,0.00
2017-11-27T01:36:55.593Z,0.00
2017-11-27T01:37:55.571Z,0.00
2017-11-27T01:38:55.562Z,0.00
2017-11-27T01:39:55.548Z,0.00
2017-11-27T01:40:55.536Z,0.00
2017-11-27T01:41:55.523Z,0.00
2017-11-27T01:42:55.510Z,0.00
2017-11-27T01:43:55.498Z,0.00
2017-11-27T01:44:55.486Z,0.00
2017-11-27T01:45:55.477Z,0.00
2017-11-27T01:46:55.460Z,0.00
2017-11-27T01:47:55.469Z,0.00
2017-11-27T01:48:55.436Z,0.00
2017-11-27T01:49:55.425Z,0.00
2017-11-27T01:50:55.413Z,0.00
2017-11-27T01:51:55.399Z,0.00
2017-11-27T01:52:55.388Z,0.00
2017-11-27T01:53:55.374Z,0.00
2017-11-27T01:54:55.362Z,0.00
2017-11-27T01:55:55.347Z,0.00
2017-11-27T01:56:55.337Z,0.00
2017-11-27T01:57:55.323Z,0.00
2017-11-27T01:58:55.312Z,0.00
2017-11-27T01:59:55.308Z,0.00
2017-11-27T02:00:55.288Z,0.00
2017-11-27T02:01:55.275Z,0.00
2017-11-27T02:02:55.262Z,0.00
2017-11-27T02:03:55.250Z,0.00
2017-11-27T02:04:55.237Z,0.00
2017-11-27T02:05:55.231Z,0.00
2017-11-27T02:06:55.216Z,0.00
2017-11-27T02:07:55.201Z,0.00
2017-11-27T02:08:55.190Z,0.00
2017-11-27T02:09:55.180Z,0.00
2017-11-27T02:10:55.162Z,0.00
2017-11-27T02:11:55.155Z,0.00
2017-11-27T02:12:55.146Z,0.00
2017-11-27T02:13:55.124Z,0.00
2017-11-27T02:14:55.118Z,0.00
2017-11-27T02:15:55.105Z,0.00
2017-11-27T02:16:55.089Z,0.00
2017-11-27T02:17:55.079Z,0.00
2017-11-27T02:18:55.066Z,0.00
2017-11-27T02:19:55.063Z,0.00
2017-11-27T02:20:55.042Z,0.00
2017-11-27T02:21:55.029Z,0.00
2017-11-27T02:22:55.014Z,0.00
2017-11-27T02:23:55.002Z,0.00
2017-11-27T02:24:54.989Z,0.00
2017-11-27T02:25:54.976Z,0.00
2017-11-27T02:26:54.965Z,0.00
2017-11-27T02:27:54.952Z,0.00
2017-11-27T02:28:54.940Z,0.00
2017-11-27T02:29:54.929Z,0.00
2017-11-27T02:30:54.916Z,0.00
2017-11-27T02:31:54.904Z,0.00
2017-11-27T02:32:54.894Z,0.00
2017-11-27T02:33:54.877Z,0.00
2017-11-27T02:34:54.866Z,0.00
2017-11-27T02:35:54.856Z,0.00
2017-11-27T02:36:54.846Z,0.00
2017-11-27T02:37:54.828Z,0.00
2017-11-27T02:38:54.817Z,0.00
2017-11-27T02:39:54.816Z,0.00
2017-11-27T02:40:54.805Z,0.00
2017-11-27T02:41:54.781Z,0.00
2017-11-27T02:42:54.775Z,0.00
2017-11-27T02:43:54.754Z,0.00
2017-11-27T02:44:54.742Z,0.00
2017-11-27T02:45:54.728Z,0.00
2017-11-27T02:46:54.715Z,0.00
2017-11-27T02:47:54.703Z,0.00
2017-11-27T02:48:54.715Z,0.00
2017-11-27T02:49:54.679Z,0.00
2017-11-27T02:50:54.669Z,0.00
2017-11-27T02:51:54.653Z,0.00
2017-11-27T02:52:54.648Z,0.00
2017-11-27T02:53:54.640Z,0.00
2017-11-27T02:54:54.617Z,0.00
2017-11-27T02:55:54.605Z,0.00
2017-11-27T02:56:54.592Z,0.00
2017-11-27T02:57:54.580Z,0.00
2017-11-27T02:58:54.567Z,0.00
2017-11-27T02:59:54.556Z,0.00
2017-11-27T03:00:54.542Z,0.00
2017-11-27T03:01:54.529Z,0.00
2017-11-27T03:02:54.518Z,0.00
2017-11-27T03:03:54.508Z,0.00
2017-11-27T03:04:54.492Z,0.00
2017-11-27T03:05:54.482Z,0.00
2017-11-27T03:06:54.470Z,0.00
2017-11-27T03:07:54.457Z,0.00
2017-11-27T03:08:54.447Z,0.00
2017-11-27T03:09:54.431Z,0.00
2017-11-27T03:10:54.428Z,0.00
2017-11-27T03:11:54.412Z,0.00
2017-11-27T03:12:54.396Z,0.00
2017-11-27T03:13:54.383Z,0.00
2017-11-27T03:14:54.374Z,0.00
2017-11-27T03:15:54.357Z,0.00
2017-11-27T03:16:54.347Z,0.00
2017-11-27T03:17:54.338Z,0.00
2017-11-27T03:18:54.329Z,0.00
2017-11-27T03:19:54.308Z,0.00
2017-11-27T03:20:54.295Z,0.00
2017-11-27T03:21:54.283Z,0.00
2017-11-27T03:22:54.270Z,0.00
2017-11-27T03:23:54.269Z,0.00
2017-11-27T03:24:54.248Z,0.00
2017-11-27T03:25:54.233Z,0.00
2017-11-27T03:26:54.231Z,0.00
2017-11-27T03:27:54.214Z,0.00
2017-11-27T03:28:54.199Z,0.00
2017-11-27T03:29:54.185Z,0.00
2017-11-27T03:30:54.173Z,0.00
2017-11-27T03:31:54.167Z,0.00
2017-11-27T03:32:54.152Z,0.00
2017-11-27T03:33:54.138Z,0.00
2017-11-27T03:34:54.123Z,0.00
2017-11-27T03:35:54.117Z,0.00
2017-11-27T03:36:54.100Z,0.00
2017-11-27T03:37:54.093Z,0.00
2017-11-27T03:38:54.076Z,0.00
2017-11-27T03:39:54.065Z,0.00
2017-11-27T03:40:54.058Z,0.00
2017-11-27T03:41:54.042Z,0.00
2017-11-27T03:42:54.025Z,0.00
2017-11-27T03:43:54.015Z,0.00
2017-11-27T03:44:54.002Z,0.00
2017-11-27T03:45:53.989Z,0.00
2017-11-27T03:46:53.978Z,0.00
2017-11-27T03:47:53.967Z,0.00
2017-11-27T03:48:53.956Z,0.00
2017-11-27T03:49:53.941Z,0.00
2017-11-27T03:50:53.929Z,0.00
2017-11-27T03:51:53.917Z,0.00
2017-11-27T03:52:53.908Z,0.00
2017-11-27T03:53:53.895Z,0.00
2017-11-27T03:54:53.885Z,0.00
2017-11-27T03:55:53.869Z,0.00
2017-11-27T03:56:53.859Z,0.00
2017-11-27T03:57:53.848Z,0.00
2017-11-27T03:58:53.832Z,0.00
2017-11-27T03:59:53.821Z,0.00
2017-11-27T04:00:53.809Z,0.00
2017-11-27T04:01:53.796Z,0.00
2017-11-27T04:02:53.788Z,0.00
2017-11-27T04:03:53.772Z,0.00
2017-11-27T04:04:53.771Z,0.00
2017-11-27T04:05:53.751Z,0.00
2017-11-27T04:06:53.736Z,0.00
2017-11-27T04:07:53.727Z,0.00
2017-11-27T04:08:53.712Z,0.00
2017-11-27T04:09:53.699Z,0.00
2017-11-27T04:10:53.690Z,0.00
2017-11-27T04:11:53.677Z,0.00
2017-11-27T04:12:53.669Z,0.00
2017-11-27T04:13:53.655Z,0.00
2017-11-27T04:14:53.641Z,0.00
2017-11-27T04:15:53.631Z,0.00
2017-11-27T04:16:53.618Z,0.00
2017-11-27T04:17:53.605Z,0.00
2017-11-27T04:18:53.596Z,0.00
2017-11-27T04:19:53.585Z,0.00
2017-11-27T04:20:53.572Z,0.00
2017-11-27T04:21:53.554Z,0.00
2017-11-27T04:22:53.546Z,0.00
2017-11-27T04:23:53.535Z,0.00
2017-11-27T04:24:53.520Z,0.00
2017-11-27T04:25:53.508Z,0.00
2017-11-27T04:26:53.496Z,0.00
2017-11-27T04:27:53.491Z,0.00
2017-11-27T04:28:53.473Z,0.00
2017-11-27T04:29:53.464Z,0.00
2017-11-27T04:30:53.463Z,0.00
2017-11-27T04:31:53.437Z,0.00
2017-11-27T04:32:53.425Z,0.00
2017-11-27T04:33:53.414Z,0.00
2017-11-27T04:34:53.408Z,0.00
2017-11-27T04:35:53.389Z,0.00
2017-11-27T04:36:53.377Z,0.00
2017-11-27T04:37:53.365Z,0.00
2017-11-27T04:38:53.355Z,0.00
2017-11-27T04:39:53.341Z,0.00
2017-11-27T04:40:53.328Z,0.00
2017-11-27T04:41:53.318Z,0.00
2017-11-27T04:42:53.308Z,0.00
2017-11-27T04:43:53.301Z,0.00
2017-11-27T04:44:53.282Z,0.00
2017-11-27T04:45:53.270Z,0.00
2017-11-27T04:46:53.258Z,0.00
2017-11-27T04:47:53.246Z,0.00
2017-11-27T04:48:53.233Z,0.00
2017-11-27T04:49:53.224Z,0.00
2017-11-27T04:50:53.213Z,0.00
2017-11-27T04:51:53.198Z,0.00
2017-11-27T04:52:53.188Z,0.00
2017-11-27T04:53:53.174Z,0.00
2017-11-27T04:54:53.162Z,0.00
2017-11-27T04:55:53.152Z,0.00
2017-11-27T04:56:53.138Z,0.00
2017-11-27T04:57:53.158Z,0.00
2017-11-27T04:58:53.126Z,0.00
2017-11-27T04:59:53.103Z,0.00
2017-11-27T05:00:53.091Z,0.00
2017-11-27T05:01:53.076Z,0.00
2017-11-27T05:02:53.066Z,0.00
2017-11-27T05:03:53.069Z,0.00
2017-11-27T05:04:53.042Z,0.00
2017-11-27T05:05:53.030Z,0.00
2017-11-27T05:06:53.026Z,0.00
2017-11-27T05:07:53.015Z,0.00
2017-11-27T05:08:53.000Z,0.00
2017-11-27T05:09:52.982Z,0.00
2017-11-27T05:10:52.970Z,0.00
2017-11-27T05:11:52.965Z,0.00
2017-11-27T05:12:52.946Z,0.00
2017-11-27T05:13:52.936Z,0.00
2017-11-27T05:14:52.923Z,0.00
2017-11-27T05:15:52.910Z,0.00
2017-11-27T05:16:52.901Z,0.00
2017-11-27T05:17:52.885Z,0.00
2017-11-27T05:18:52.875Z,0.00
2017-11-27T05:19:52.864Z,0.00
2017-11-27T05:20:52.850Z,0.00
2017-11-27T05:21:52.840Z,0.00
2017-11-27T05:22:52.829Z,0.00
2017-11-27T05:23:52.835Z,0.00
2017-11-27T05:24:52.815Z,0.00
2017-11-27T05:25:52.800Z,0.00
2017-11-27T05:26:52.783Z,0.00
2017-11-27T05:27:52.766Z,0.00
2017-11-27T05:28:52.754Z,0.00
2017-11-27T05:29:52.745Z,0.00
2017-11-27T05:30:52.731Z,0.00
2017-11-27T05:31:52.719Z,0.00
2017-11-27T05:32:52.707Z,0.00
2017-11-27T05:33:52.699Z,0.00
2017-11-27T05:34:52.683Z,0.00
2017-11-27T05:35:52.671Z,0.00
2017-11-27T05:36:52.662Z,0.00
2017-11-27T05:37:52.646Z,0.00
2017-11-27T05:38:52.636Z,0.00
2017-11-27T05:39:52.624Z,0.00
2017-11-27T05:40:52.633Z,0.00
2017-11-27T05:41:52.598Z,0.00
2017-11-27T05:42:52.589Z,0.00
2017-11-27T05:43:52.575Z,0.00
2017-11-27T05:44:52.563Z,0.00
2017-11-27T05:45:52.548Z,0.00
2017-11-27T05:46:52.538Z,0.00
2017-11-27T05:47:52.526Z,0.00
2017-11-27T05:48:52.514Z,0.00
2017-11-27T05:49:52.506Z,0.00
2017-11-27T05:50:52.489Z,0.00
2017-11-27T05:51:52.482Z,0.00
2017-11-27T05:52:52.473Z,0.00
2017-11-27T05:53:52.456Z,0.00
2017-11-27T05:54:52.439Z,0.00
2017-11-27T05:55:52.428Z,0.00
2017-11-27T05:56:52.452Z,0.00
2017-11-27T05:57:52.404Z,0.00
2017-11-27T05:58:52.394Z,0.00
2017-11-27T05:59:52.388Z,0.00
2017-11-27T06:00:52.368Z,0.00
2017-11-27T06:01:52.362Z,0.00
2017-11-27T06:02:52.341Z,0.00
2017-11-27T06:03:52.330Z,0.00
2017-11-27T06:04:52.318Z,0.00
2017-11-27T06:05:52.304Z,0.00
2017-11-27T06:06:52.293Z,0.00
2017-11-27T06:07:52.285Z,0.00
2017-11-27T06:08:52.270Z,0.00
2017-11-27T06:09:52.257Z,0.00
2017-11-27T06:10:52.246Z,0.00
2017-11-27T06:11:52.233Z,0.00
2017-11-27T06:12:52.221Z,0.00
2017-11-27T06:13:52.207Z,0.00
2017-11-27T06:14:52.201Z,0.00
2017-11-27T06:15:52.188Z,0.00
2017-11-27T06:16:52.180Z,0.00
2017-11-27T06:17:52.184Z,0.00
2017-11-27T06:18:52.147Z,0.00
2017-11-27T06:19:52.136Z,0.00
2017-11-27T06:20:52.124Z,0.00
2017-11-27T06:21:52.110Z,0.00
2017-11-27T06:22:52.098Z,0.00
2017-11-27T06:23:52.088Z,0.00
2017-11-27T06:24:52.080Z,0.00
2017-11-27T06:25:52.061Z,0.00
2017-11-27T06:26:52.049Z,0.00
2017-11-27T06:27:52.037Z,0.00
2017-11-27T06:28:52.026Z,0.00
2017-11-27T06:29:52.012Z,0.00
2017-11-27T06:30:52.014Z,0.00
2017-11-27T06:31:51.994Z,0.00
2017-11-27T06:32:51.981Z,0.00
2017-11-27T06:33:51.964Z,0.00
2017-11-27T06:34:51.955Z,4.00
2017-11-27T06:35:51.945Z,4.00
2017-11-27T06:36:51.931Z,0.00
2017-11-27T06:37:51.914Z,4.00
2017-11-27T06:38:51.902Z,4.00
2017-11-27T06:39:51.893Z,4.00
2017-11-27T06:40:51.879Z,4.00
2017-11-27T06:41:51.874Z,8.00
2017-11-27T06:42:51.859Z,4.00
2017-11-27T06:43:51.841Z,8.00
2017-11-27T06:44:51.832Z,8.00
2017-11-27T06:45:51.816Z,12.00
2017-11-27T06:46:51.804Z,12.00
2017-11-27T06:47:51.792Z,12.00
2017-11-27T06:48:51.787Z,16.00
2017-11-27T06:49:51.767Z,12.00
2017-11-27T06:50:51.757Z,16.00
2017-11-27T06:51:51.750Z,16.00
2017-11-27T06:52:51.733Z,16.00
2017-11-27T06:53:51.722Z,24.00
2017-11-27T06:54:51.711Z,28.00
2017-11-27T06:55:51.697Z,36.00
2017-11-27T06:56:51.722Z,44.00
2017-11-27T06:57:51.670Z,52.00
2017-11-27T06:58:51.660Z,56.00
2017-11-27T06:59:51.648Z,56.00
2017-11-27T07:00:51.637Z,60.00
2017-11-27T07:01:51.624Z,68.00
2017-11-27T07:02:51.616Z,72.00
2017-11-27T07:03:51.600Z,72.00
2017-11-27T07:04:51.589Z,76.00
2017-11-27T07:05:51.574Z,80.00
2017-11-27T07:06:51.562Z,84.00
2017-11-27T07:07:51.560Z,92.00
2017-11-27T07:08:51.539Z,112.00
2017-11-27T07:09:51.526Z,128.00
2017-11-27T07:10:51.513Z,144.00
2017-11-27T07:11:51.506Z,160.00
2017-11-27T07:12:51.494Z,172.00
2017-11-27T07:13:51.480Z,184.00
2017-11-27T07:14:51.467Z,200.00
2017-11-27T07:15:51.456Z,232.00
2017-11-27T07:16:51.444Z,252.00
2017-11-27T07:17:51.430Z,272.00
2017-11-27T07:18:51.419Z,280.00
2017-11-27T07:19:51.408Z,292.00
2017-11-27T07:20:51.416Z,304.00
2017-11-27T07:21:51.388Z,324.00
2017-11-27T07:22:51.371Z,356.00
2017-11-27T07:23:51.358Z,388.00
2017-11-27T07:24:51.349Z,416.00
2017-11-27T07:25:51.332Z,432.00
2017-11-27T07:26:51.326Z,436.00
2017-11-27T07:27:51.310Z,468.00
2017-11-27T07:28:51.298Z,512.00
2017-11-27T07:29:51.302Z,568.00
2017-11-27T07:30:51.274Z,608.00
2017-11-27T07:31:51.293Z,660.00
2017-11-27T07:32:51.254Z,692.00
2017-11-27T07:33:51.239Z,672.00
2017-11-27T07:34:51.249Z,676.00
2017-11-27T07:35:51.220Z,652.00
2017-11-27T07:36:51.204Z,716.00
2017-11-27T07:37:51.202Z,680.00
2017-11-27T07:38:51.179Z,644.00
2017-11-27T07:39:51.177Z,612.00
2017-11-27T07:40:51.160Z,616.00
2017-11-27T07:41:51.146Z,524.00
2017-11-27T07:42:51.130Z,532.00
2017-11-27T07:43:51.124Z,520.00
2017-11-27T07:44:51.106Z,516.00
2017-11-27T07:45:51.095Z,536.00
2017-11-27T07:46:51.101Z,528.00
2017-11-27T07:47:51.072Z,512.00
2017-11-27T07:48:51.058Z,572.00
2017-11-27T07:49:51.046Z,540.00
2017-11-27T07:50:51.035Z,528.00
2017-11-27T07:51:51.029Z,500.00
2017-11-27T07:52:51.011Z,520.00
2017-11-27T07:53:50.998Z,548.00
2017-11-27T07:54:50.989Z,548.00
2017-11-27T07:55:51.018Z,608.00
2017-11-27T07:56:50.974Z,624.00
2017-11-27T07:57:51.018Z,644.00
2017-11-27T07:58:50.940Z,692.00
2017-11-27T07:59:50.927Z,624.00
2017-11-27T08:00:50.920Z,580.00
2017-11-27T08:01:50.903Z,652.00
2017-11-27T08:02:50.895Z,684.00
2017-11-27T08:03:50.877Z,664.00
2017-11-27T08:04:50.870Z,640.00
2017-11-27T08:05:50.856Z,608.00
2017-11-27T08:06:50.842Z,616.00
2017-11-27T08:07:50.836Z,592.00
2017-11-27T08:08:50.824Z,688.00
2017-11-27T08:09:50.810Z,676.00
2017-11-27T08:10:50.797Z,656.00
2017-11-27T08:11:50.797Z,800.00
2017-11-27T08:12:50.773Z,776.00
2017-11-27T08:13:50.761Z,836.00
2017-11-27T08:14:50.762Z,832.00
2017-11-27T08:15:50.736Z,764.00
2017-11-27T08:16:50.731Z,704.00
2017-11-27T08:17:50.710Z,764.00
2017-11-27T08:18:50.699Z,804.00
2017-11-27T08:19:50.687Z,920.00
2017-11-27T08:20:50.676Z,852.00
2017-11-27T08:21:50.663Z,664.00
2017-11-27T08:22:50.651Z,724.00
2017-11-27T08:23:50.638Z,804.00
2017-11-27T08:24:50.628Z,792.00
2017-11-27T08:25:50.617Z,724.00
2017-11-27T08:26:50.602Z,812.00
2017-11-27T08:27:50.593Z,736.00
2017-11-27T08:28:50.579Z,836.00
2017-11-27T08:29:50.566Z,924.00
2017-11-27T08:30:50.560Z,732.00
2017-11-27T08:31:50.545Z,736.00
2017-11-27T08:32:50.531Z,696.00
2017-11-27T08:33:50.516Z,888.00
2017-11-27T08:34:50.506Z,940.00
2017-11-27T08:35:50.493Z,928.00
2017-11-27T08:36:50.480Z,940.00
2017-11-27T08:37:50.490Z,896.00
2017-11-27T08:38:50.470Z,832.00
2017-11-27T08:39:50.479Z,804.00
2017-11-27T08:40:50.433Z,764.00
2017-11-27T08:41:50.427Z,832.00
2017-11-27T08:42:50.413Z,828.00
2017-11-27T08:43:50.397Z,1064.00
2017-11-27T08:44:50.388Z,1084.00
2017-11-27T08:45:50.373Z,916.00
2017-11-27T08:46:50.365Z,968.00
2017-11-27T08:47:50.358Z,1100.00
2017-11-27T08:48:50.340Z,1116.00
2017-11-27T08:49:50.326Z,1108.00
2017-11-27T08:50:50.318Z,848.00
2017-11-27T08:51:50.302Z,972.00
2017-11-27T08:52:50.289Z,1008.00
2017-11-27T08:53:50.279Z,968.00
2017-11-27T08:54:50.264Z,884.00
2017-11-27T08:55:50.265Z,908.00
2017-11-27T08:56:50.241Z,892.00
2017-11-27T08:57:50.229Z,1248.00
2017-11-27T08:58:50.229Z,1980.00
2017-11-27T08:59:50.205Z,2276.00
2017-11-27T09:00:50.195Z,1500.00
2017-11-27T09:01:50.213Z,1072.00
2017-11-27T09:02:50.171Z,872.00
2017-11-27T09:03:50.188Z,1048.00
2017-11-27T09:04:50.151Z,1292.00
2017-11-27T09:05:50.131Z,1292.00
2017-11-27T09:06:50.122Z,1352.00
2017-11-27T09:07:50.111Z,1364.00
2017-11-27T09:08:50.099Z,1316.00
2017-11-27T09:09:50.085Z,1248.00
2017-11-27T09:10:50.080Z,1092.00
2017-11-27T09:11:50.065Z,1332.00
2017-11-27T09:12:50.049Z,1400.00
2017-11-27T09:13:50.040Z,1368.00
2017-11-27T09:14:50.029Z,1620.00
2017-11-27T09:15:50.019Z,1404.00
2017-11-27T09:16:50.003Z,1664.00
2017-11-27T09:17:49.989Z,1320.00
2017-11-27T09:18:49.980Z,1204.00
2017-11-27T09:19:49.966Z,1380.00
2017-11-27T09:20:49.953Z,1640.00
2017-11-27T09:21:49.943Z,1580.00
2017-11-27T09:22:49.932Z,1280.00
2017-11-27T09:23:49.916Z,1044.00
2017-11-27T09:24:49.904Z,1072.00
2017-11-27T09:25:49.898Z,1148.00
2017-11-27T09:26:49.882Z,1256.00
2017-11-27T09:27:49.870Z,1256.00
2017-11-27T09:28:49.856Z,1364.00
2017-11-27T09:29:49.854Z,1268.00
2017-11-27T09:30:49.832Z,1200.00
2017-11-27T09:31:49.822Z,1588.00
2017-11-27T09:32:49.810Z,1528.00
2017-11-27T09:33:49.801Z,1404.00
2017-11-27T09:34:49.785Z,1828.00
2017-11-27T09:35:49.778Z,1896.00
2017-11-27T09:36:49.762Z,1664.00
2017-11-27T09:37:49.749Z,1632.00
2017-11-27T09:38:49.737Z,1456.00
2017-11-27T09:39:49.752Z,1380.00
2017-11-27T09:40:49.719Z,1616.00
2017-11-27T09:41:49.699Z,1640.00
2017-11-27T09:42:49.695Z,1420.00
2017-11-27T09:43:49.679Z,1580.00
2017-11-27T09:44:49.684Z,1524.00
2017-11-27T09:45:49.656Z,1572.00
2017-11-27T09:46:49.644Z,1716.00
2017-11-27T09:47:49.650Z,1356.00
2017-11-27T09:48:49.619Z,1820.00
2017-11-27T09:49:49.614Z,1856.00
2017-11-27T09:50:49.594Z,1624.00
2017-11-27T09:51:49.585Z,1448.00
2017-11-27T09:52:49.571Z,1344.00
2017-11-27T09:53:49.562Z,1352.00
2017-11-27T09:54:49.550Z,1156.00
2017-11-27T09:55:49.535Z,1208.00
2017-11-27T09:56:49.520Z,1148.00
2017-11-27T09:57:49.508Z,1128.00
2017-11-27T09:58:49.500Z,1348.00
2017-11-27T09:59:49.500Z,1272.00
2017-11-27T10:00:49.482Z,1788.00
2017-11-27T10:01:49.460Z,1556.00
2017-11-27T10:02:49.456Z,1836.00
2017-11-27T10:03:49.437Z,1868.00
2017-11-27T10:04:49.423Z,1700.00
2017-11-27T10:05:49.414Z,1368.00
2017-11-27T10:06:49.463Z,1268.00
2017-11-27T10:07:49.397Z,1400.00
2017-11-27T10:08:49.382Z,1496.00
2017-11-27T10:09:49.365Z,1444.00
2017-11-27T10:10:49.366Z,1492.00
2017-11-27T10:11:49.344Z,1292.00
2017-11-27T10:12:49.330Z,1432.00
2017-11-27T10:13:49.318Z,1804.00
2017-11-27T10:14:49.318Z,1668.00
2017-11-27T10:15:49.294Z,1576.00
2017-11-27T10:16:49.281Z,1668.00
2017-11-27T10:17:49.271Z,1480.00
2017-11-27T10:18:49.260Z,1496.00
2017-11-27T10:19:49.251Z,1680.00
2017-11-27T10:20:49.235Z,1412.00
2017-11-27T10:21:49.224Z,1444.00
2017-11-27T10:22:49.210Z,1328.00
2017-11-27T10:23:49.203Z,1504.00
2017-11-27T10:24:49.186Z,1332.00
2017-11-27T10:25:49.173Z,1548.00
2017-11-27T10:26:49.163Z,1244.00
2017-11-27T10:27:49.150Z,1724.00
2017-11-27T10:28:49.138Z,1496.00
2017-11-27T10:29:49.125Z,2288.00
2017-11-27T10:30:49.120Z,2056.00
2017-11-27T10:31:49.101Z,2016.00
2017-11-27T10:32:49.098Z,1552.00
2017-11-27T10:33:49.078Z,1944.00
2017-11-27T10:34:49.079Z,1664.00
2017-11-27T10:35:49.063Z,1752.00
2017-11-27T10:36:49.043Z,1856.00
2017-11-27T10:37:49.029Z,1908.00
2017-11-27T10:38:49.017Z,1812.00
2017-11-27T10:39:49.005Z,2392.00
2017-11-27T10:40:48.994Z,2208.00
2017-11-27T10:41:48.984Z,2388.00
2017-11-27T10:42:48.970Z,2372.00
2017-11-27T10:43:48.958Z,1848.00
2017-11-27T10:44:48.949Z,2600.00
2017-11-27T10:45:48.939Z,2248.00
2017-11-27T10:46:48.924Z,2252.00
2017-11-27T10:47:48.917Z,2772.00
2017-11-27T10:48:48.900Z,2004.00
2017-11-27T10:49:48.895Z,2424.00
2017-11-27T10:50:48.879Z,2412.00
2017-11-27T10:51:48.864Z,2576.00
2017-11-27T10:52:48.853Z,2704.00
2017-11-27T10:53:48.840Z,2880.00
2017-11-27T10:54:48.829Z,2816.00
2017-11-27T10:55:48.816Z,2932.00
2017-11-27T10:56:48.806Z,3056.00
2017-11-27T10:57:48.792Z,2680.00
2017-11-27T10:58:48.784Z,3212.00
2017-11-27T10:59:48.769Z,3168.00
2017-11-27T11:00:48.757Z,2768.00
2017-11-27T11:01:48.747Z,2640.00
2017-11-27T11:02:49.166Z,2352.00
2017-11-27T11:03:48.721Z,2788.00
2017-11-27T11:04:48.710Z,3212.00
2017-11-27T11:05:48.698Z,2580.00
2017-11-27T11:06:48.688Z,2260.00
2017-11-27T11:07:48.675Z,2440.00
2017-11-27T11:08:48.662Z,2704.00
2017-11-27T11:09:48.653Z,2184.00
2017-11-27T11:10:48.639Z,2200.00
2017-11-27T11:11:48.626Z,1752.00
2017-11-27T11:12:48.615Z,1444.00
2017-11-27T11:13:48.604Z,1396.00
2017-11-27T11:14:48.590Z,1748.00
2017-11-27T11:15:48.588Z,1916.00
2017-11-27T11:16:48.574Z,1684.00
2017-11-27T11:17:48.556Z,1788.00
2017-11-27T11:18:48.545Z,1756.00
2017-11-27T11:19:48.534Z,1568.00
2017-11-27T11:20:48.524Z,1560.00
2017-11-27T11:21:48.512Z,1436.00
2017-11-27T11:22:48.503Z,1284.00
2017-11-27T11:23:48.488Z,1916.00
2017-11-27T11:24:48.482Z,2448.00
2017-11-27T11:25:48.463Z,2156.00
2017-11-27T11:26:48.452Z,2076.00
2017-11-27T11:27:48.441Z,1684.00
2017-11-27T11:28:48.443Z,1288.00
2017-11-27T11:29:48.420Z,1196.00
2017-11-27T11:30:48.406Z,1072.00
2017-11-27T11:31:48.395Z,1084.00
2017-11-27T11:32:48.386Z,1104.00
2017-11-27T11:33:48.372Z,1224.00
2017-11-27T11:34:48.361Z,1060.00
2017-11-27T11:35:48.352Z,1196.00
2017-11-27T11:36:48.337Z,1336.00
2017-11-27T11:37:48.326Z,1340.00
2017-11-27T11:38:48.323Z,1260.00
2017-11-27T11:39:48.304Z,1244.00
2017-11-27T11:40:48.293Z,1168.00
2017-11-27T11:41:48.281Z,1212.00
2017-11-27T11:42:48.267Z,1412.00
2017-11-27T11:43:48.257Z,1140.00
2017-11-27T11:44:48.246Z,1732.00
2017-11-27T11:45:48.233Z,1336.00
2017-11-27T11:46:48.235Z,1432.00
2017-11-27T11:47:48.212Z,1256.00
2017-11-27T11:48:48.200Z,1312.00
2017-11-27T11:49:48.230Z,1064.00
2017-11-27T11:50:48.178Z,1176.00
2017-11-27T11:51:48.182Z,1420.00
2017-11-27T11:52:48.161Z,1332.00
2017-11-27T11:53:48.141Z,1300.00
2017-11-27T11:54:48.150Z,1400.00
2017-11-27T11:55:48.144Z,1876.00
2017-11-27T11:56:48.109Z,2300.00
2017-11-27T11:57:48.096Z,3256.00
2017-11-27T11:58:48.084Z,3284.00
2017-11-27T11:59:48.087Z,3176.00
2017-11-27T12:00:48.070Z,2120.00
2017-11-27T12:01:48.054Z,1656.00
2017-11-27T12:02:48.040Z,1608.00
2017-11-27T12:03:48.036Z,1560.00
2017-11-27T12:04:48.016Z,1344.00
2017-11-27T12:05:48.030Z,1104.00
2017-11-27T12:06:47.994Z,1272.00
2017-11-27T12:07:47.984Z,1112.00
2017-11-27T12:08:47.972Z,1172.00
2017-11-27T12:09:47.987Z,1696.00
2017-11-27T12:10:47.950Z,1664.00
2017-11-27T12:11:47.946Z,2228.00
2017-11-27T12:12:47.931Z,1764.00
2017-11-27T12:13:47.918Z,1692.00
2017-11-27T12:14:47.903Z,1632.00
2017-11-27T12:15:47.891Z,1104.00
2017-11-27T12:16:47.880Z,896.00
2017-11-27T12:17:47.888Z,904.00
2017-11-27T12:18:47.863Z,820.00
2017-11-27T12:19:47.917Z,840.00
2017-11-27T12:20:47.841Z,960.00
2017-11-27T12:21:47.825Z,848.00
2017-11-27T12:22:47.816Z,860.00
2017-11-27T12:23:47.804Z,956.00
2017-11-27T12:24:47.795Z,1132.00
2017-11-27T12:25:47.780Z,1148.00
2017-11-27T12:26:47.769Z,1096.00
2017-11-27T12:27:47.757Z,1120.00
2017-11-27T12:28:47.748Z,1040.00
2017-11-27T12:29:47.735Z,1432.00
2017-11-27T12:30:47.724Z,1284.00
2017-11-27T12:31:47.713Z,1236.00
2017-11-27T12:32:47.715Z,908.00
2017-11-27T12:33:47.691Z,828.00
2017-11-27T12:34:47.679Z,816.00
2017-11-27T12:35:47.667Z,852.00
2017-11-27T12:36:47.657Z,1272.00
2017-11-27T12:37:47.645Z,1280.00
2017-11-27T12:38:47.636Z,984.00
2017-11-27T12:39:47.623Z,1292.00
2017-11-27T12:40:47.615Z,1148.00
2017-11-27T12:41:47.600Z,1592.00
2017-11-27T12:42:47.589Z,1216.00
2017-11-27T12:43:47.579Z,1372.00
2017-11-27T12:44:47.567Z,1196.00
2017-11-27T12:45:47.557Z,972.00
2017-11-27T12:46:47.545Z,1144.00
2017-11-27T12:47:47.535Z,1044.00